Time;durP1;ratioP1;P1;durP2;ratioP2;P2;SDS_P1;SDS_P2;PMS_P1;PMS_P2;Temp;Humidity;BMP_temperature;BMP_pressure;BME280_temperature;BME280_humidity;BME280_pressure;Samples;Min_cycle;Max_cycle;Signal;HPM_P1;HPM_P2
2023/01/21 00:01:09;;;;;;;;;;;;;;;21.46;28.46;97507.47;5055916;28;959;-79
2023/01/21 00:03:35;;;;;;;;;;;;;;;21.63;28.26;97496.78;5055408;28;978;-80
2023/01/21 00:06:00;;;;;;;;;;;;;;;21.24;28.87;97502.50;5055707;28;985;-79
2023/01/21 00:08:26;;;;;;;;;;;;;;;21.20;28.82;97498.22;5055430;28;1269;-80
2023/01/21 00:10:52;;;;;;;;;;;;;;;21.31;28.57;97513.59;5055704;28;961;-79
2023/01/21 00:13:18;;;;;;;;;;;;;;;21.45;28.64;97522.84;5055739;28;985;-79
2023/01/21 00:15:44;;;;;;;;;;;;;;;21.35;28.89;97524.81;5039343;28;1989;-79
2023/01/21 00:18:09;;;;;;;;;;;;;;;21.80;28.24;97535.78;5070991;28;1045;-79
2023/01/21 00:20:35;;;;;;;;;;;;;;;21.25;28.86;97535.19;5077749;28;872;-79
2023/01/21 00:23:00;;;;;;;;;;;;;;;20.96;29.63;97528.88;5077606;28;1002;-79
2023/01/21 00:25:26;;;;;;;;;;;;;;;21.37;28.81;97521.53;5077514;28;928;-79
2023/01/21 00:27:51;;;;;;;;;;;;;;;21.14;28.90;97520.63;5077472;28;875;-80
2023/01/21 00:30:17;;;;;;;;;;;;;;;21.65;28.48;97517.72;5077350;28;880;-80
2023/01/21 00:32:43;;;;;;;;;;;;;;;21.79;28.19;97527.75;5077962;28;912;-79
2023/01/21 00:35:08;;;;;;;;;;;;;;;21.39;28.51;97538.81;5077311;28;1975;-79
2023/01/21 00:37:34;;;;;;;;;;;;;;;21.18;28.90;97535.41;5077359;28;782;-79
2023/01/21 00:39:59;;;;;;;;;;;;;;;21.26;28.75;97542.44;5076959;28;977;-80
2023/01/21 00:42:26;;;;;;;;;;;;;;;21.30;28.59;97531.03;5077116;28;906;-79
2023/01/21 00:44:52;;;;;;;;;;;;;;;21.47;28.62;97528.88;5077366;28;822;-79
2023/01/21 00:47:17;;;;;;;;;;;;;;;21.78;28.17;97538.31;5076342;28;924;-79
2023/01/21 00:49:43;;;;;;;;;;;;;;;22.07;27.48;97542.94;5076779;28;866;-80
2023/01/21 00:52:08;;;;;;;;;;;;;;;21.28;28.63;97544.81;5077329;28;851;-79
2023/01/21 00:54:34;;;;;;;;;;;;;;;21.25;28.92;97546.53;5077241;28;1980;-79
2023/01/21 00:56:59;;;;;;;;;;;;;;;21.39;28.54;97539.63;5077427;28;1068;-79
2023/01/21 00:59:27;;;;;;;;;;;;;;;21.39;28.49;97558.63;5076974;28;836;-79
2023/01/21 01:01:52;;;;;;;;;;;;;;;21.51;28.38;97540.88;5054887;28;949;-80
2023/01/21 01:04:18;;;;;;;;;;;;;;;21.67;28.10;97543.53;5054392;28;1044;-79
2023/01/21 01:06:44;;;;;;;;;;;;;;;21.44;28.42;97541.09;5038525;28;955;-80
2023/01/21 01:09:11;;;;;;;;;;;;;;;21.47;28.34;97534.53;5058225;28;1059;-79
2023/01/21 01:11:37;;;;;;;;;;;;;;;21.19;28.73;97548.34;5059313;28;947;-79
2023/01/21 01:14:02;;;;;;;;;;;;;;;21.56;28.75;97545.94;5058714;28;1989;-79
2023/01/21 01:16:28;;;;;;;;;;;;;;;21.63;28.32;97547.75;5058880;28;955;-80
2023/01/21 01:18:54;;;;;;;;;;;;;;;21.44;28.72;97544.69;5058541;28;836;-79
2023/01/21 01:21:19;;;;;;;;;;;;;;;21.52;28.27;97553.75;4999434;28;960;-79
2023/01/21 01:23:45;;;;;;;;;;;;;;;21.33;28.50;97552.75;4982507;28;930;-79
2023/01/21 01:26:11;;;;;;;;;;;;;;;21.17;28.82;97556.47;4999696;28;859;-79
2023/01/21 01:28:37;;;;;;;;;;;;;;;21.41;28.58;97551.28;4998857;28;1034;-79
2023/01/21 01:31:03;;;;;;;;;;;;;;;21.50;28.65;97556.25;4998947;28;873;-79
2023/01/21 01:33:28;;;;;;;;;;;;;;;21.28;28.86;97556.91;5029013;28;960;-79
2023/01/21 01:35:54;;;;;;;;;;;;;;;21.31;28.65;97561.72;5038254;28;1921;-79
2023/01/21 01:38:19;;;;;;;;;;;;;;;21.41;28.73;97559.00;5038257;28;949;-80
2023/01/21 01:40:45;;;;;;;;;;;;;;;21.45;28.72;97560.47;5038699;28;1037;-79
2023/01/21 01:43:15;;;;;;;;;;;;;;;21.38;28.73;97565.56;5021546;28;976;-80
2023/01/21 01:45:40;;;;;;;;;;;;;;;21.13;29.04;97567.09;5038663;28;912;-79
2023/01/21 01:48:06;;;;;;;;;;;;;;;21.34;28.56;97574.16;5038340;28;981;-80
2023/01/21 01:50:32;;;;;;;;;;;;;;;21.21;29.09;97574.13;5037973;28;843;-80
2023/01/21 01:52:58;;;;;;;;;;;;;;;21.12;29.15;97568.34;5070121;28;1025;-79
2023/01/21 01:55:24;;;;;;;;;;;;;;;21.39;28.99;97572.78;5078757;28;1985;-79
2023/01/21 01:57:50;;;;;;;;;;;;;;;21.35;28.71;97566.44;5079274;28;886;-79
2023/01/21 02:00:15;;;;;;;;;;;;;;;21.24;28.81;97561.91;5079014;28;852;-79
2023/01/21 02:02:41;;;;;;;;;;;;;;;21.39;28.60;97565.09;5079320;28;920;-79
2023/01/21 02:05:07;;;;;;;;;;;;;;;21.26;28.73;97558.63;5080254;28;1048;-80
2023/01/21 02:07:38;;;;;;;;;;;;;;;21.28;28.76;97562.56;5079863;28;1530;-79
2023/01/21 02:10:10;;;;;;;;;;;;;;;21.42;28.74;97560.56;5078826;28;862;-79
2023/01/21 02:12:35;;;;;;;;;;;;;;;21.59;28.47;97559.19;5078619;28;846;-80
2023/01/21 02:15:01;;;;;;;;;;;;;;;21.23;28.70;97562.34;5078842;28;1985;-80
2023/01/21 02:17:37;;;;;;;;;;;;;;;21.20;28.78;97549.91;5079454;28;936;-79
2023/01/21 02:20:10;;;;;;;;;;;;;;;21.06;28.92;97561.69;5077496;28;959;-79
2023/01/21 02:22:48;;;;;;;;;;;;;;;21.30;29.02;97570.66;5079283;28;2829;-79
2023/01/21 02:25:32;;;;;;;;;;;;;;;21.12;29.03;97571.19;5078299;28;896;-79
2023/01/21 02:28:13;;;;;;;;;;;;;;;21.57;28.40;97564.53;5079810;28;844;-79
2023/01/21 02:30:47;;;;;;;;;;;;;;;21.19;28.83;97579.47;5079800;28;1002;-80
2023/01/21 02:33:31;;;;;;;;;;;;;;;21.20;28.75;97583.88;5078601;28;887;-79
2023/01/21 02:36:16;;;;;;;;;;;;;;;21.06;29.22;97585.09;5080227;28;1918;-79
2023/01/21 02:38:45;;;;;;;;;;;;;;;21.57;28.39;97581.50;5078972;28;923;-79
2023/01/21 02:41:22;;;;;;;;;;;;;;;21.69;28.15;97565.72;5079078;28;925;-79
2023/01/21 02:44:00;;;;;;;;;;;;;;;21.15;28.76;97558.97;5079215;28;856;-80
2023/01/21 02:46:45;;;;;;;;;;;;;;;21.20;28.67;97564.06;5079360;28;878;-80
2023/01/21 02:49:13;;;;;;;;;;;;;;;20.99;29.11;97574.03;5077715;28;896;-79
2023/01/21 02:51:39;;;;;;;;;;;;;;;21.50;28.42;97564.75;5078126;28;874;-79
2023/01/21 02:54:33;;;;;;;;;;;;;;;21.56;28.26;97565.78;5078827;28;1898;-79
2023/01/21 02:56:59;;;;;;;;;;;;;;;21.20;28.48;97561.25;5017592;28;1108;-79
2023/01/21 02:59:24;;;;;;;;;;;;;;;21.16;28.86;97560.56;5000665;28;953;-79
2023/01/21 03:01:54;;;;;;;;;;;;;;;21.17;28.60;97556.47;5017379;28;903;-79
2023/01/21 03:04:20;;;;;;;;;;;;;;;21.27;28.80;97555.34;5000621;28;947;-80
2023/01/21 03:06:47;;;;;;;;;;;;;;;21.19;28.75;97565.31;5017133;28;884;-80
2023/01/21 03:09:15;;;;;;;;;;;;;;;21.67;28.07;97566.19;5017154;28;1077;-80
2023/01/21 03:11:41;;;;;;;;;;;;;;;21.13;29.03;97560.66;5017523;28;912;-79
2023/01/21 03:16:57;;;;;;;;;;;;;;;21.26;28.59;97565.06;5016793;28;932;-79
2023/01/21 03:19:33;;;;;;;;;;;;;;;21.24;28.98;97567.59;5016914;28;1036;-80
2023/01/21 03:22:00;;;;;;;;;;;;;;;21.70;28.07;97559.59;4984473;28;763;-80
2023/01/21 03:24:26;;;;;;;;;;;;;;;21.77;27.90;97565.03;5000426;28;912;-79
2023/01/21 03:26:51;;;;;;;;;;;;;;;21.44;28.49;97569.38;5000465;28;995;-79
2023/01/21 03:29:18;;;;;;;;;;;;;;;21.35;28.68;97572.09;5000237;28;919;-79
2023/01/21 03:31:44;;;;;;;;;;;;;;;21.28;28.62;97579.56;4999628;28;906;-79
2023/01/21 03:34:10;;;;;;;;;;;;;;;21.55;28.52;97564.97;5063295;28;1890;-80
2023/01/21 03:36:44;;;;;;;;;;;;;;;21.55;28.26;97561.31;5077490;28;933;-80
2023/01/21 03:39:14;;;;;;;;;;;;;;;21.58;28.27;97568.94;5076610;28;786;-80
2023/01/21 03:41:40;;;;;;;;;;;;;;;21.18;28.93;97580.69;5078824;28;965;-80
2023/01/21 03:44:05;;;;;;;;;;;;;;;21.28;28.64;97579.56;5078236;28;912;-80
2023/01/21 03:46:34;;;;;;;;;;;;;;;21.06;28.98;97584.31;5078497;28;861;-79
2023/01/21 03:49:01;;;;;;;;;;;;;;;21.22;29.09;97587.03;5078169;28;989;-79
2023/01/21 03:51:37;;;;;;;;;;;;;;;21.26;28.87;97590.53;5077100;28;876;-79
2023/01/21 03:54:02;;;;;;;;;;;;;;;21.63;28.35;97596.66;5077475;28;1985;-79
2023/01/21 03:56:28;;;;;;;;;;;;;;;21.67;28.03;97597.34;5078712;28;867;-80
2023/01/21 03:58:53;;;;;;;;;;;;;;;21.30;28.63;97602.59;5076407;28;817;-80
2023/01/21 04:01:19;;;;;;;;;;;;;;;21.45;28.53;97599.28;5078511;28;803;-79
2023/01/21 04:03:44;;;;;;;;;;;;;;;21.20;28.98;97615.00;5077377;28;949;-79
2023/01/21 04:06:13;;;;;;;;;;;;;;;21.07;29.27;97626.28;5077922;28;980;-79
2023/01/21 04:08:39;;;;;;;;;;;;;;;21.62;28.24;97626.22;5077428;28;1071;-79
2023/01/21 04:11:04;;;;;;;;;;;;;;;21.82;28.13;97635.28;5078013;28;1034;-80
2023/01/21 04:13:30;;;;;;;;;;;;;;;21.19;28.84;97633.22;5077963;28;887;-79
2023/01/21 04:15:55;;;;;;;;;;;;;;;21.38;28.65;97633.47;5077775;28;1902;-79
2023/01/21 04:18:21;;;;;;;;;;;;;;;21.11;28.96;97643.16;5077476;28;922;-79
2023/01/21 04:20:46;;;;;;;;;;;;;;;21.08;29.24;97644.84;5077881;28;917;-80
2023/01/21 04:23:11;;;;;;;;;;;;;;;21.47;28.56;97633.59;5077119;28;893;-79
2023/01/21 04:25:37;;;;;;;;;;;;;;;21.48;28.67;97635.97;5077536;28;802;-80
2023/01/21 04:28:02;;;;;;;;;;;;;;;21.23;28.77;97636.72;5077445;28;858;-80
2023/01/21 04:30:28;;;;;;;;;;;;;;;21.27;28.65;97634.56;5077525;28;814;-79
2023/01/21 04:32:53;;;;;;;;;;;;;;;21.37;28.77;97626.22;5077182;28;814;-80
2023/01/21 04:35:19;;;;;;;;;;;;;;;21.53;28.56;97640.28;5076945;28;1905;-79
2023/01/21 04:37:44;;;;;;;;;;;;;;;21.44;28.45;97638.09;5076867;28;1657;-79
2023/01/21 04:40:10;;;;;;;;;;;;;;;21.50;28.42;97641.16;5077282;28;1500;-79
2023/01/21 04:42:35;;;;;;;;;;;;;;;21.41;28.71;97641.06;5076797;28;1434;-79
2023/01/21 04:45:01;;;;;;;;;;;;;;;21.19;29.04;97655.84;5058416;28;1154;-79
2023/01/21 04:47:26;;;;;;;;;;;;;;;21.21;29.08;97644.88;5077224;28;1694;-79
2023/01/21 04:49:52;;;;;;;;;;;;;;;21.45;28.75;97655.88;5077064;28;1453;-79
2023/01/21 04:52:17;;;;;;;;;;;;;;;21.54;28.67;97681.47;5058773;28;981;-80
2023/01/21 04:54:43;;;;;;;;;;;;;;;21.12;28.96;97667.38;5077564;28;1969;-79
2023/01/21 04:57:09;;;;;;;;;;;;;;;21.22;29.14;97671.91;5077936;28;959;-79
2023/01/21 04:59:35;;;;;;;;;;;;;;;21.21;29.02;97676.00;5076500;28;2163;-79
2023/01/21 05:02:00;;;;;;;;;;;;;;;21.01;29.13;97678.22;5077263;28;916;-80
2023/01/21 05:04:26;;;;;;;;;;;;;;;21.62;28.51;97673.56;5077317;28;896;-79
2023/01/21 05:06:51;;;;;;;;;;;;;;;21.51;28.48;97677.53;5077394;28;991;-80
2023/01/21 05:09:16;;;;;;;;;;;;;;;21.34;28.67;97690.19;5074293;28;1328;-78
2023/01/21 05:11:42;;;;;;;;;;;;;;;21.49;28.44;97680.00;5075285;28;1547;-79
2023/01/21 05:14:07;;;;;;;;;;;;;;;21.19;28.86;97689.81;5074390;28;1898;-79
2023/01/21 05:16:33;;;;;;;;;;;;;;;21.23;28.81;97686.84;5075518;28;899;-78
2023/01/21 05:18:58;;;;;;;;;;;;;;;21.52;28.70;97681.94;5076909;28;1534;-79
2023/01/21 05:21:24;;;;;;;;;;;;;;;21.54;28.63;97684.31;5077022;28;918;-78
2023/01/21 05:23:49;;;;;;;;;;;;;;;21.41;28.81;97689.19;5076207;28;977;-78
2023/01/21 05:26:14;;;;;;;;;;;;;;;21.23;29.11;97696.13;5076435;28;860;-79
2023/01/21 05:28:40;;;;;;;;;;;;;;;21.16;28.86;97702.00;5074653;28;1551;-78
2023/01/21 05:31:05;;;;;;;;;;;;;;;20.96;29.42;97709.88;5076272;28;1511;-76
2023/01/21 05:33:31;;;;;;;;;;;;;;;21.32;28.96;97716.09;5074982;28;838;-77
2023/01/21 05:35:56;;;;;;;;;;;;;;;21.44;28.77;97723.03;5075316;28;2004;-77
2023/01/21 05:38:22;;;;;;;;;;;;;;;21.84;28.18;97706.41;5074408;28;1782;-77
2023/01/21 05:40:47;;;;;;;;;;;;;;;21.42;28.59;97719.06;5075574;28;976;-76
2023/01/21 05:43:13;;;;;;;;;;;;;;;21.35;28.91;97719.28;5075221;28;923;-77
2023/01/21 05:45:38;;;;;;;;;;;;;;;21.16;29.02;97713.34;5075346;28;911;-77
2023/01/21 05:48:04;;;;;;;;;;;;;;;21.55;28.59;97722.69;5074938;28;1795;-76
2023/01/21 05:50:29;;;;;;;;;;;;;;;21.64;28.69;97719.19;5089990;28;1003;-77
2023/01/21 05:52:55;;;;;;;;;;;;;;;21.30;28.77;97721.44;5075489;28;993;-77
2023/01/21 05:55:20;;;;;;;;;;;;;;;21.26;28.91;97728.41;5078750;28;1910;-77
2023/01/21 05:57:45;;;;;;;;;;;;;;;21.36;28.95;97726.53;5078122;28;1908;-77
2023/01/21 06:00:11;;;;;;;;;;;;;;;21.06;29.13;97737.06;5078603;28;1716;-77
2023/01/21 06:02:37;;;;;;;;;;;;;;;21.54;28.68;97743.75;5078797;28;1001;-77
2023/01/21 06:05:02;;;;;;;;;;;;;;;21.64;28.39;97742.66;5078882;28;918;-77
2023/01/21 06:07:27;;;;;;;;;;;;;;;21.25;28.83;97744.59;5078574;28;1027;-77
2023/01/21 06:09:53;;;;;;;;;;;;;;;20.89;29.65;97746.84;5077938;28;1793;-77
2023/01/21 06:12:18;;;;;;;;;;;;;;;21.04;29.58;97750.88;5078183;28;936;-76
2023/01/21 06:14:44;;;;;;;;;;;;;;;21.22;29.41;97753.19;5078351;28;1910;-77
2023/01/21 06:17:09;;;;;;;;;;;;;;;21.49;28.62;97758.47;5059610;28;995;-77
2023/01/21 06:19:34;;;;;;;;;;;;;;;21.56;28.42;97756.25;5077164;28;1804;-77
2023/01/21 06:22:00;;;;;;;;;;;;;;;21.24;29.04;97748.69;5077047;28;878;-77
2023/01/21 06:24:25;;;;;;;;;;;;;;;21.29;29.10;97756.59;5077935;28;948;-77
2023/01/21 06:26:51;;;;;;;;;;;;;;;21.33;28.70;97760.13;5078407;28;924;-76
2023/01/21 06:29:17;;;;;;;;;;;;;;;21.47;28.73;97763.81;5076451;28;1413;-76
2023/01/21 06:31:42;;;;;;;;;;;;;;;21.45;28.83;97760.63;5058965;28;1596;-76
2023/01/21 06:34:08;;;;;;;;;;;;;;;21.64;28.53;97758.84;5077629;28;1984;-77
2023/01/21 06:36:35;;;;;;;;;;;;;;;21.28;28.86;97760.66;5076903;28;1491;-77
2023/01/21 06:39:00;;;;;;;;;;;;;;;21.25;29.07;97772.09;5077732;28;1690;-77
2023/01/21 06:41:25;;;;;;;;;;;;;;;20.96;29.76;97766.44;5078167;28;919;-77
2023/01/21 06:43:51;;;;;;;;;;;;;;;21.11;29.45;97772.50;5078011;28;902;-77
2023/01/21 06:46:16;;;;;;;;;;;;;;;21.51;28.89;97773.78;5077934;28;991;-76
2023/01/21 06:48:42;;;;;;;;;;;;;;;21.46;28.76;97771.50;5077467;28;1445;-77
2023/01/21 06:51:07;;;;;;;;;;;;;;;21.62;28.56;97779.13;5059138;28;974;-77
2023/01/21 06:53:32;;;;;;;;;;;;;;;21.18;29.13;97772.28;5077736;28;919;-77
2023/01/21 06:55:58;;;;;;;;;;;;;;;21.23;29.35;97775.34;5077669;28;1918;-77
2023/01/21 06:58:23;;;;;;;;;;;;;;;21.25;29.14;97766.44;5074360;28;1882;-78
2023/01/21 07:00:49;;;;;;;;;;;;;;;21.33;29.09;97774.28;5057547;28;908;-78
2023/01/21 07:03:14;;;;;;;;;;;;;;;21.31;29.37;97782.44;5101478;28;1987;-77
2023/01/21 07:05:40;;;;;;;;;;;;;;;21.19;29.17;97780.34;5076964;28;1111;-78
2023/01/21 07:08:05;;;;;;;;;;;;;;;21.30;29.12;97785.72;5076924;28;1777;-77
2023/01/21 07:10:31;;;;;;;;;;;;;;;21.24;29.04;97793.13;5077286;28;1525;-78
2023/01/21 07:12:56;;;;;;;;;;;;;;;21.28;28.98;97800.28;5076572;28;897;-77
2023/01/21 07:15:22;;;;;;;;;;;;;;;21.55;28.67;97796.31;5077447;28;1899;-77
2023/01/21 07:17:47;;;;;;;;;;;;;;;21.65;28.65;97795.19;5077620;28;1328;-77
2023/01/21 07:20:12;;;;;;;;;;;;;;;21.26;29.33;97802.78;5075703;28;1872;-78
2023/01/21 07:22:38;;;;;;;;;;;;;;;21.16;29.48;97798.22;5077429;28;930;-77
2023/01/21 07:25:04;;;;;;;;;;;;;;;21.16;29.54;97803.88;5077348;28;918;-77
2023/01/21 07:27:29;;;;;;;;;;;;;;;21.16;29.58;97801.03;5076874;28;1119;-77
2023/01/21 07:29:54;;;;;;;;;;;;;;;20.98;29.68;97803.56;5076406;28;1808;-77
2023/01/21 07:32:20;;;;;;;;;;;;;;;21.63;28.74;97802.56;5076639;28;945;-77
2023/01/21 07:34:45;;;;;;;;;;;;;;;21.54;28.69;97800.38;5076883;28;1971;-78
2023/01/21 07:37:11;;;;;;;;;;;;;;;21.51;28.68;97806.97;5077249;28;988;-77
2023/01/21 07:39:36;;;;;;;;;;;;;;;21.75;28.82;97801.78;5076198;28;1738;-75
2023/01/21 07:42:01;;;;;;;;;;;;;;;21.16;29.70;97809.53;5076828;28;940;-77
2023/01/21 07:44:27;;;;;;;;;;;;;;;21.18;29.70;97809.88;5076598;28;1144;-77
2023/01/21 07:46:52;;;;;;;;;;;;;;;21.23;29.21;97802.88;5076726;28;947;-77
2023/01/21 07:49:18;;;;;;;;;;;;;;;21.35;29.61;97821.16;5075583;28;1663;-77
2023/01/21 07:51:44;;;;;;;;;;;;;;;21.46;29.29;97816.00;5076498;28;929;-76
2023/01/21 07:54:09;;;;;;;;;;;;;;;21.30;29.40;97819.69;5074999;28;1898;-77
2023/01/21 07:56:35;;;;;;;;;;;;;;;21.49;29.22;97815.09;5076652;28;928;-77
2023/01/21 07:59:00;;;;;;;;;;;;;;;21.32;29.26;97828.53;5076094;28;2044;-78
2023/01/21 08:01:29;;;;;;;;;;;;;;;21.31;29.41;97827.72;5076618;28;964;-77
2023/01/21 08:03:55;;;;;;;;;;;;;;;21.72;28.95;97825.34;5076860;28;960;-78
2023/01/21 08:06:20;;;;;;;;;;;;;;;21.54;28.96;97834.34;5075382;28;887;-78
2023/01/21 08:08:46;;;;;;;;;;;;;;;21.39;29.41;97824.69;5075912;28;1527;-78
2023/01/21 08:11:11;;;;;;;;;;;;;;;21.45;29.21;97814.41;5076924;28;942;-77
2023/01/21 08:13:37;;;;;;;;;;;;;;;21.36;29.17;97822.75;5076121;28;907;-77
2023/01/21 08:16:03;;;;;;;;;;;;;;;20.96;29.86;97823.00;5057264;28;2063;-77
2023/01/21 08:18:28;;;;;;;;;;;;;;;21.31;29.53;97822.06;5074541;28;1886;-77
2023/01/21 08:20:54;;;;;;;;;;;;;;;21.44;29.27;97818.47;5076345;28;991;-78
2023/01/21 08:23:20;;;;;;;;;;;;;;;21.27;29.37;97814.88;5091512;28;976;-77
2023/01/21 08:25:45;;;;;;;;;;;;;;;21.12;29.70;97820.16;5057045;28;940;-77
2023/01/21 08:28:11;;;;;;;;;;;;;;;21.28;29.26;97816.47;5078601;28;1813;-77
2023/01/21 08:30:36;;;;;;;;;;;;;;;21.53;29.28;97810.13;5056602;28;908;-77
2023/01/21 08:33:01;;;;;;;;;;;;;;;21.57;29.34;97816.47;5071929;28;974;-77
2023/01/21 08:35:27;;;;;;;;;;;;;;;21.56;28.82;97817.72;5055995;28;1984;-77
2023/01/21 08:37:58;;;;;;;;;;;;;;;21.44;29.10;97819.25;5065994;28;1970;-78
2023/01/21 08:40:25;;;;;;;;;;;;;;;21.03;29.68;97828.47;5075345;28;960;-77
2023/01/21 08:42:51;;;;;;;;;;;;;;;20.98;29.90;97823.34;5076411;28;931;-77
2023/01/21 08:45:16;;;;;;;;;;;;;;;21.16;29.55;97823.69;5074461;28;952;-78
2023/01/21 08:47:42;;;;;;;;;;;;;;;21.70;29.15;97830.66;5074260;28;1756;-77
2023/01/21 08:50:08;;;;;;;;;;;;;;;21.48;29.39;97831.28;5075215;28;1440;-77
2023/01/21 08:52:34;;;;;;;;;;;;;;;21.54;29.04;97828.69;5073747;28;1065;-80
2023/01/21 08:54:59;;;;;;;;;;;;;;;21.38;29.55;97829.56;5075928;28;1902;-77
2023/01/21 08:57:25;;;;;;;;;;;;;;;21.12;29.96;97820.16;5076358;28;1649;-77
2023/01/21 08:59:51;;;;;;;;;;;;;;;21.22;29.47;97824.72;5075986;28;936;-78
2023/01/21 09:02:16;;;;;;;;;;;;;;;21.53;29.69;97822.25;5057830;28;968;-78
2023/01/21 09:04:42;;;;;;;;;;;;;;;21.54;29.29;97823.03;5075792;28;905;-78
2023/01/21 09:07:07;;;;;;;;;;;;;;;21.57;29.35;97827.81;5076079;28;1663;-79
2023/01/21 09:09:32;;;;;;;;;;;;;;;21.26;29.67;97825.41;5075493;28;1234;-75
2023/01/21 09:11:58;;;;;;;;;;;;;;;21.63;29.52;97830.88;5075006;28;873;-72
2023/01/21 09:14:23;;;;;;;;;;;;;;;21.78;29.58;97810.19;5074802;28;1916;-74
2023/01/21 09:16:49;;;;;;;;;;;;;;;21.81;29.91;97826.28;5074145;28;1531;-73
2023/01/21 09:19:14;;;;;;;;;;;;;;;21.71;30.10;97816.06;5075425;28;1011;-71
2023/01/21 09:21:40;;;;;;;;;;;;;;;21.63;30.76;97820.34;5074360;28;913;-72
2023/01/21 09:24:05;;;;;;;;;;;;;;;21.69;30.56;97812.88;5074879;28;1780;-72
2023/01/21 09:26:31;;;;;;;;;;;;;;;21.52;30.85;97808.53;5075662;28;890;-77
2023/01/21 09:28:57;;;;;;;;;;;;;;;21.37;31.10;97808.16;5077112;28;906;-77
2023/01/21 09:31:24;;;;;;;;;;;;;;;21.42;30.97;97803.97;5077491;28;1702;-77
2023/01/21 09:33:50;;;;;;;;;;;;;;;21.28;31.04;97808.78;5056916;28;1023;-75
2023/01/21 09:36:17;;;;;;;;;;;;;;;20.93;31.58;97806.91;5057301;28;1979;-77
2023/01/21 09:38:43;;;;;;;;;;;;;;;21.12;31.25;97814.47;5056798;28;1521;-77
2023/01/21 09:41:16;;;;;;;;;;;;;;;21.39;31.16;97813.38;5056828;28;1610;-78
2023/01/21 09:43:46;;;;;;;;;;;;;;;21.58;30.83;97812.41;5052091;28;1602;-77
2023/01/21 09:46:16;;;;;;;;;;;;;;;21.60;30.58;97807.06;5037275;28;1019;-78
2023/01/21 09:48:42;;;;;;;;;;;;;;;21.44;30.55;97801.50;5036746;28;1073;-78
2023/01/21 09:51:31;;;;;;;;;;;;;;;21.13;31.10;97796.25;5037290;28;947;-78
2023/01/21 09:53:58;;;;;;;;;;;;;;;21.30;30.52;97797.84;4997505;28;984;-78
2023/01/21 09:56:40;;;;;;;;;;;;;;;21.14;30.71;97795.03;4997684;28;1906;-77
2023/01/21 09:59:09;;;;;;;;;;;;;;;21.68;30.51;97782.97;4997479;28;965;-77
2023/01/21 10:01:35;;;;;;;;;;;;;;;21.37;30.80;97785.50;5000631;28;1643;-77
2023/01/21 10:04:27;;;;;;;;;;;;;;;21.12;31.02;97791.84;5007502;28;1811;-77
2023/01/21 10:06:56;;;;;;;;;;;;;;;21.35;30.45;97787.19;5016797;28;1006;-78
2023/01/21 10:09:27;;;;;;;;;;;;;;;21.18;30.57;97792.09;5016605;28;1282;-77
2023/01/21 10:11:52;;;;;;;;;;;;;;;21.11;30.59;97793.09;5011499;28;1673;-82
2023/01/21 10:14:18;;;;;;;;;;;;;;;21.61;30.40;97817.19;4996798;28;2388;-77
2023/01/21 10:16:44;;;;;;;;;;;;;;;21.65;30.19;97795.19;4997704;28;1922;-77
2023/01/21 10:19:21;;;;;;;;;;;;;;;21.30;30.62;97786.53;4997323;28;992;-77
2023/01/21 10:21:48;;;;;;;;;;;;;;;21.43;30.34;97788.59;4983782;28;1580;-77
2023/01/21 10:24:15;;;;;;;;;;;;;;;21.30;30.13;97783.69;4977012;28;1356;-77
2023/01/21 10:26:40;;;;;;;;;;;;;;;21.49;30.42;97787.56;4977593;28;942;-77
2023/01/21 10:29:07;;;;;;;;;;;;;;;21.81;29.77;97782.97;4977606;28;956;-77
2023/01/21 10:31:34;;;;;;;;;;;;;;;21.57;30.29;97771.97;4974637;28;1591;-77
2023/01/21 10:34:00;;;;;;;;;;;;;;;21.43;29.90;97771.59;4957799;29;999;-77
2023/01/21 10:36:25;;;;;;;;;;;;;;;21.36;29.91;97772.63;4957403;29;1914;-77
2023/01/21 10:38:54;;;;;;;;;;;;;;;21.27;29.94;97761.91;4957529;29;987;-76
2023/01/21 10:41:28;;;;;;;;;;;;;;;21.22;30.15;97762.47;4956811;28;983;-76
2023/01/21 10:43:56;;;;;;;;;;;;;;;21.57;30.63;97757.03;5015554;28;1652;-77
2023/01/21 10:46:40;;;;;;;;;;;;;;;21.54;30.29;97758.72;5038706;28;1011;-76
2023/01/21 10:49:05;;;;;;;;;;;;;;;21.61;30.07;97759.75;5055156;28;1042;-76
2023/01/21 10:51:36;;;;;;;;;;;;;;;21.62;29.78;97750.81;5041462;28;1744;-76
2023/01/21 10:54:20;;;;;;;;;;;;;;;21.43;30.00;97748.97;5034248;28;1887;-77
2023/01/21 10:56:51;;;;;;;;;;;;;;;21.35;30.49;97753.22;5095561;28;999;-76
2023/01/21 10:59:18;;;;;;;;;;;;;;;21.33;30.05;97754.47;5095387;28;1821;-76
2023/01/21 11:01:44;;;;;;;;;;;;;;;21.13;30.63;97745.34;5078954;28;1032;-77
2023/01/21 11:04:10;;;;;;;;;;;;;;;21.36;30.39;97743.53;5095474;28;934;-77
2023/01/21 11:06:36;;;;;;;;;;;;;;;21.66;29.87;97756.34;5095525;28;983;-77
2023/01/21 11:09:02;;;;;;;;;;;;;;;21.65;30.12;97749.88;5078558;28;1221;-77
2023/01/21 11:11:31;;;;;;;;;;;;;;;21.34;30.23;97741.13;5085843;28;2072;-76
2023/01/21 11:13:57;;;;;;;;;;;;;;;21.38;30.04;97746.69;5076076;28;951;-76
2023/01/21 11:16:44;;;;;;;;;;;;;;;21.33;30.11;97743.16;5077313;28;1917;-76
2023/01/21 11:19:16;;;;;;;;;;;;;;;21.78;30.02;97742.22;5076173;28;920;-76
2023/01/21 11:21:58;;;;;;;;;;;;;;;21.77;29.71;97754.78;5092950;28;1045;-77
2023/01/21 11:24:24;;;;;;;;;;;;;;;21.59;30.12;97746.03;5075939;28;925;-77
2023/01/21 11:26:53;;;;;;;;;;;;;;;21.60;29.65;97747.63;5059570;28;1202;-77
2023/01/21 11:29:19;;;;;;;;;;;;;;;21.31;30.04;97748.47;5059041;28;954;-77
2023/01/21 11:32:03;;;;;;;;;;;;;;;21.11;30.26;97741.38;5077070;28;947;-77
2023/01/21 11:34:29;;;;;;;;;;;;;;;21.28;29.97;97743.69;5076940;28;1902;-75
2023/01/21 11:36:54;;;;;;;;;;;;;;;21.61;30.30;97737.91;5076145;28;1897;-76
2023/01/21 11:39:21;;;;;;;;;;;;;;;21.70;29.97;97751.38;5076602;28;1682;-76
2023/01/21 11:41:51;;;;;;;;;;;;;;;21.69;29.62;97747.75;5058726;28;913;-76
2023/01/21 11:44:17;;;;;;;;;;;;;;;21.74;29.68;97744.34;5058837;28;1009;-77
2023/01/21 11:46:42;;;;;;;;;;;;;;;21.46;30.08;97748.06;5078728;28;1562;-77
2023/01/21 11:49:08;;;;;;;;;;;;;;;21.57;29.74;97751.38;5075391;28;1031;-76
2023/01/21 11:51:33;;;;;;;;;;;;;;;21.12;30.37;97752.25;5076156;28;927;-76
2023/01/21 11:54:15;;;;;;;;;;;;;;;21.13;30.17;97762.31;5075400;28;902;-77
2023/01/21 11:56:59;;;;;;;;;;;;;;;21.21;30.54;97763.72;5076214;28;1767;-78
2023/01/21 11:59:40;;;;;;;;;;;;;;;21.54;30.02;97772.88;5075378;28;965;-77
2023/01/21 12:02:09;;;;;;;;;;;;;;;21.65;30.00;97772.53;5074084;28;1739;-76
2023/01/21 12:04:34;;;;;;;;;;;;;;;21.41;30.22;97779.75;5076039;28;956;-77
2023/01/21 12:06:59;;;;;;;;;;;;;;;21.28;30.34;97777.63;5075028;28;1047;-77
2023/01/21 12:09:26;;;;;;;;;;;;;;;20.95;30.69;97781.84;5058124;28;1472;-76
2023/01/21 12:12:13;;;;;;;;;;;;;;;21.04;30.41;97790.47;5057579;28;945;-75
2023/01/21 12:14:52;;;;;;;;;;;;;;;21.49;30.12;97786.78;5057557;28;2253;-77
2023/01/21 12:17:27;;;;;;;;;;;;;;;21.61;29.94;97788.88;5063924;28;1909;-76
2023/01/21 12:19:53;;;;;;;;;;;;;;;21.42;29.89;97799.13;5057310;28;1011;-76
2023/01/21 12:22:24;;;;;;;;;;;;;;;21.08;30.34;97802.47;5073856;28;1043;-76
2023/01/21 12:24:52;;;;;;;;;;;;;;;21.32;29.91;97798.19;5073810;28;1108;-76
2023/01/21 12:27:20;;;;;;;;;;;;;;;21.28;29.93;97805.94;5074881;28;1831;-76
2023/01/21 12:29:58;;;;;;;;;;;;;;;21.54;29.85;97806.03;5094316;28;992;-76
2023/01/21 12:32:32;;;;;;;;;;;;;;;21.66;29.62;97810.97;5076177;28;1752;-77
2023/01/21 12:35:32;;;;;;;;;;;;;;;21.27;30.33;97809.22;5073645;28;1977;-76
2023/01/21 12:38:03;;;;;;;;;;;;;;;21.27;29.71;97810.00;4985098;28;1805;-76
2023/01/21 12:40:29;;;;;;;;;;;;;;;21.36;29.55;97811.44;5012905;28;1758;-76
2023/01/21 12:42:55;;;;;;;;;;;;;;;21.35;29.41;97809.84;4997655;28;1094;-76
2023/01/21 12:45:27;;;;;;;;;;;;;;;21.57;30.01;97817.28;5013489;28;1773;-76
2023/01/21 12:47:55;;;;;;;;;;;;;;;21.72;29.94;97816.84;4997137;28;1536;-76
2023/01/21 12:50:31;;;;;;;;;;;;;;;21.50;30.12;97822.34;5013784;28;1206;-77
2023/01/21 12:52:56;;;;;;;;;;;;;;;21.32;30.10;97812.31;5013348;28;1983;-77
2023/01/21 12:55:35;;;;;;;;;;;;;;;21.32;30.04;97818.00;5013471;28;2422;-76
2023/01/21 12:58:02;;;;;;;;;;;;;;;21.30;29.96;97820.47;4999924;28;1457;-76
2023/01/21 13:00:31;;;;;;;;;;;;;;;21.20;30.21;97821.53;5010980;28;1161;-77
2023/01/21 13:03:02;;;;;;;;;;;;;;;21.47;30.17;97823.25;4995145;28;1014;-76
2023/01/21 13:05:29;;;;;;;;;;;;;;;21.64;29.83;97833.25;5016714;28;1061;-77
2023/01/21 13:08:13;;;;;;;;;;;;;;;21.15;30.41;97827.75;5016510;28;1182;-76